sensor_id;sensor_type;location;lat;lon;timestamp;P1;durP1;ratioP1;P2;durP2;ratioP2
44720;SDS011;30450;52.534;13.398;2023-01-19T00:01:49;14.73;;;6.80;;
44720;SDS011;30450;52.534;13.398;2023-01-19T00:04:14;14.85;;;7.75;;
44720;SDS011;30450;52.534;13.398;2023-01-19T00:06:40;12.27;;;6.80;;
44720;SDS011;30450;52.534;13.398;2023-01-19T00:09:06;16.70;;;7.47;;
44720;SDS011;30450;52.534;13.398;2023-01-19T00:11:32;13.80;;;6.85;;
44720;SDS011;30450;52.534;13.398;2023-01-19T00:13:58;18.23;;;8.02;;
44720;SDS011;30450;52.534;13.398;2023-01-19T00:16:24;18.85;;;7.35;;
44720;SDS011;30450;52.534;13.398;2023-01-19T00:18:49;12.20;;;7.30;;
44720;SDS011;30450;52.534;13.398;2023-01-19T00:21:16;15.10;;;6.95;;
44720;SDS011;30450;52.534;13.398;2023-01-19T00:23:42;14.55;;;7.15;;
44720;SDS011;30450;52.534;13.398;2023-01-19T00:26:15;12.75;;;7.03;;
44720;SDS011;30450;52.534;13.398;2023-01-19T00:28:44;12.38;;;6.40;;
44720;SDS011;30450;52.534;13.398;2023-01-19T00:31:10;13.70;;;8.05;;
44720;SDS011;30450;52.534;13.398;2023-01-19T00:33:36;15.60;;;7.45;;
44720;SDS011;30450;52.534;13.398;2023-01-19T00:36:02;14.02;;;7.78;;
44720;SDS011;30450;52.534;13.398;2023-01-19T00:38:28;17.48;;;7.10;;
44720;SDS011;30450;52.534;13.398;2023-01-19T00:40:54;10.35;;;6.22;;
44720;SDS011;30450;52.534;13.398;2023-01-19T00:43:19;10.25;;;6.65;;
44720;SDS011;30450;52.534;13.398;2023-01-19T00:45:45;12.38;;;6.32;;
44720;SDS011;30450;52.534;13.398;2023-01-19T00:48:11;13.55;;;6.60;;
44720;SDS011;30450;52.534;13.398;2023-01-19T00:50:36;12.73;;;6.88;;
44720;SDS011;30450;52.534;13.398;2023-01-19T00:53:03;15.35;;;6.38;;
44720;SDS011;30450;52.534;13.398;2023-01-19T00:55:29;14.02;;;6.40;;
44720;SDS011;30450;52.534;13.398;2023-01-19T00:57:56;12.43;;;6.85;;
44720;SDS011;30450;52.534;13.398;2023-01-19T01:00:22;11.73;;;6.32;;
44720;SDS011;30450;52.534;13.398;2023-01-19T01:02:48;13.65;;;7.43;;
44720;SDS011;30450;52.534;13.398;2023-01-19T01:05:15;13.60;;;7.03;;
44720;SDS011;30450;52.534;13.398;2023-01-19T01:07:41;15.70;;;8.15;;
44720;SDS011;30450;52.534;13.398;2023-01-19T01:12:35;19.08;;;8.68;;
44720;SDS011;30450;52.534;13.398;2023-01-19T01:15:01;14.50;;;7.97;;
44720;SDS011;30450;52.534;13.398;2023-01-19T01:17:26;15.75;;;8.65;;
44720;SDS011;30450;52.534;13.398;2023-01-19T01:19:52;10.88;;;7.75;;
44720;SDS011;30450;52.534;13.398;2023-01-19T01:22:18;17.17;;;8.48;;
44720;SDS011;30450;52.534;13.398;2023-01-19T01:24:44;15.10;;;8.43;;
44720;SDS011;30450;52.534;13.398;2023-01-19T01:27:10;14.35;;;8.13;;
44720;SDS011;30450;52.534;13.398;2023-01-19T01:29:36;14.02;;;9.00;;
44720;SDS011;30450;52.534;13.398;2023-01-19T01:32:02;12.18;;;8.23;;
44720;SDS011;30450;52.534;13.398;2023-01-19T01:34:28;18.23;;;8.55;;
44720;SDS011;30450;52.534;13.398;2023-01-19T01:36:54;16.80;;;8.32;;
44720;SDS011;30450;52.534;13.398;2023-01-19T01:39:20;24.02;;;8.57;;
44720;SDS011;30450;52.534;13.398;2023-01-19T01:41:47;18.35;;;8.75;;
44720;SDS011;30450;52.534;13.398;2023-01-19T01:44:41;12.13;;;8.40;;
44720;SDS011;30450;52.534;13.398;2023-01-19T01:47:04;14.25;;;9.32;;
44720;SDS011;30450;52.534;13.398;2023-01-19T01:49:30;14.77;;;8.15;;
44720;SDS011;30450;52.534;13.398;2023-01-19T01:51:56;17.13;;;8.35;;
44720;SDS011;30450;52.534;13.398;2023-01-19T01:54:23;16.98;;;8.27;;
44720;SDS011;30450;52.534;13.398;2023-01-19T01:56:51;19.63;;;8.60;;
44720;SDS011;30450;52.534;13.398;2023-01-19T01:59:19;16.13;;;9.10;;
44720;SDS011;30450;52.534;13.398;2023-01-19T02:01:55;18.15;;;8.43;;
44720;SDS011;30450;52.534;13.398;2023-01-19T02:04:43;14.65;;;8.52;;
44720;SDS011;30450;52.534;13.398;2023-01-19T02:07:11;14.70;;;8.60;;
44720;SDS011;30450;52.534;13.398;2023-01-19T02:09:57;17.38;;;9.40;;
44720;SDS011;30450;52.534;13.398;2023-01-19T02:12:42;19.35;;;9.75;;
44720;SDS011;30450;52.534;13.398;2023-01-19T02:15:26;18.00;;;8.82;;
44720;SDS011;30450;52.534;13.398;2023-01-19T02:17:52;19.90;;;10.13;;
44720;SDS011;30450;52.534;13.398;2023-01-19T02:20:17;13.27;;;8.70;;
44720;SDS011;30450;52.534;13.398;2023-01-19T02:22:48;18.13;;;8.95;;
44720;SDS011;30450;52.534;13.398;2023-01-19T02:25:15;19.65;;;9.48;;
44720;SDS011;30450;52.534;13.398;2023-01-19T02:27:41;13.65;;;7.93;;
44720;SDS011;30450;52.534;13.398;2023-01-19T02:30:07;19.40;;;9.27;;
44720;SDS011;30450;52.534;13.398;2023-01-19T02:32:33;16.48;;;9.07;;
44720;SDS011;30450;52.534;13.398;2023-01-19T02:34:59;19.25;;;9.70;;
44720;SDS011;30450;52.534;13.398;2023-01-19T02:37:25;20.40;;;9.45;;
44720;SDS011;30450;52.534;13.398;2023-01-19T02:39:52;19.08;;;10.40;;
44720;SDS011;30450;52.534;13.398;2023-01-19T02:42:23;16.17;;;10.02;;
44720;SDS011;30450;52.534;13.398;2023-01-19T02:44:50;18.88;;;10.00;;
44720;SDS011;30450;52.534;13.398;2023-01-19T02:47:18;20.05;;;10.27;;
44720;SDS011;30450;52.534;13.398;2023-01-19T02:49:52;17.50;;;9.05;;
44720;SDS011;30450;52.534;13.398;2023-01-19T02:52:18;15.93;;;9.35;;
44720;SDS011;30450;52.534;13.398;2023-01-19T02:54:51;17.77;;;9.32;;
44720;SDS011;30450;52.534;13.398;2023-01-19T03:02:21;17.90;;;10.02;;
44720;SDS011;30450;52.534;13.398;2023-01-19T03:07:20;15.02;;;9.60;;
44720;SDS011;30450;52.534;13.398;2023-01-19T03:15:08;12.93;;;8.73;;
44720;SDS011;30450;52.534;13.398;2023-01-19T03:17:35;19.15;;;9.48;;
44720;SDS011;30450;52.534;13.398;2023-01-19T03:20:01;20.25;;;9.75;;
44720;SDS011;30450;52.534;13.398;2023-01-19T03:22:29;18.65;;;10.13;;
44720;SDS011;30450;52.534;13.398;2023-01-19T03:24:57;17.10;;;9.80;;
44720;SDS011;30450;52.534;13.398;2023-01-19T03:27:25;29.85;;;11.85;;
44720;SDS011;30450;52.534;13.398;2023-01-19T03:29:52;22.10;;;10.75;;
44720;SDS011;30450;52.534;13.398;2023-01-19T03:34:46;20.30;;;10.93;;
44720;SDS011;30450;52.534;13.398;2023-01-19T03:37:14;20.65;;;11.88;;
44720;SDS011;30450;52.534;13.398;2023-01-19T03:39:41;19.98;;;10.45;;
44720;SDS011;30450;52.534;13.398;2023-01-19T03:42:08;19.83;;;11.23;;
44720;SDS011;30450;52.534;13.398;2023-01-19T03:44:35;20.52;;;12.73;;
44720;SDS011;30450;52.534;13.398;2023-01-19T03:47:02;17.98;;;10.52;;
44720;SDS011;30450;52.534;13.398;2023-01-19T03:49:32;21.08;;;11.75;;
44720;SDS011;30450;52.534;13.398;2023-01-19T03:51:59;18.15;;;11.15;;
44720;SDS011;30450;52.534;13.398;2023-01-19T03:54:25;18.48;;;11.18;;
44720;SDS011;30450;52.534;13.398;2023-01-19T03:56:51;21.35;;;12.35;;
44720;SDS011;30450;52.534;13.398;2023-01-19T03:59:17;20.20;;;11.20;;
44720;SDS011;30450;52.534;13.398;2023-01-19T04:01:44;19.50;;;11.35;;
44720;SDS011;30450;52.534;13.398;2023-01-19T04:04:10;20.90;;;12.30;;
44720;SDS011;30450;52.534;13.398;2023-01-19T04:06:38;19.67;;;12.40;;
44720;SDS011;30450;52.534;13.398;2023-01-19T04:09:03;23.10;;;12.45;;
44720;SDS011;30450;52.534;13.398;2023-01-19T04:11:29;19.80;;;11.85;;
44720;SDS011;30450;52.534;13.398;2023-01-19T04:13:55;19.45;;;12.55;;
44720;SDS011;30450;52.534;13.398;2023-01-19T04:16:21;19.05;;;12.00;;
44720;SDS011;30450;52.534;13.398;2023-01-19T04:18:48;21.48;;;12.13;;
44720;SDS011;30450;52.534;13.398;2023-01-19T04:21:14;20.63;;;12.85;;
44720;SDS011;30450;52.534;13.398;2023-01-19T04:23:41;25.15;;;12.43;;
44720;SDS011;30450;52.534;13.398;2023-01-19T04:26:09;22.70;;;13.30;;
44720;SDS011;30450;52.534;13.398;2023-01-19T04:28:35;19.17;;;12.55;;
44720;SDS011;30450;52.534;13.398;2023-01-19T04:31:04;20.55;;;13.45;;
44720;SDS011;30450;52.534;13.398;2023-01-19T04:33:30;22.27;;;12.65;;
44720;SDS011;30450;52.534;13.398;2023-01-19T04:35:56;19.38;;;12.15;;
44720;SDS011;30450;52.534;13.398;2023-01-19T04:38:22;21.95;;;13.50;;
44720;SDS011;30450;52.534;13.398;2023-01-19T04:40:48;19.33;;;12.73;;
44720;SDS011;30450;52.534;13.398;2023-01-19T04:43:15;20.20;;;12.88;;
44720;SDS011;30450;52.534;13.398;2023-01-19T04:45:40;25.23;;;13.57;;
44720;SDS011;30450;52.534;13.398;2023-01-19T04:48:09;18.95;;;12.77;;
44720;SDS011;30450;52.534;13.398;2023-01-19T04:50:34;17.92;;;12.38;;
44720;SDS011;30450;52.534;13.398;2023-01-19T04:53:00;25.35;;;12.85;;
44720;SDS011;30450;52.534;13.398;2023-01-19T04:55:26;20.20;;;12.50;;
44720;SDS011;30450;52.534;13.398;2023-01-19T04:57:52;25.92;;;12.93;;
44720;SDS011;30450;52.534;13.398;2023-01-19T05:00:18;24.58;;;12.40;;
44720;SDS011;30450;52.534;13.398;2023-01-19T05:02:45;18.13;;;12.70;;
44720;SDS011;30450;52.534;13.398;2023-01-19T05:05:11;22.65;;;12.05;;
44720;SDS011;30450;52.534;13.398;2023-01-19T05:07:37;23.27;;;12.77;;
44720;SDS011;30450;52.534;13.398;2023-01-19T05:10:03;21.67;;;12.98;;
44720;SDS011;30450;52.534;13.398;2023-01-19T05:12:29;25.40;;;12.75;;
44720;SDS011;30450;52.534;13.398;2023-01-19T05:14:55;23.15;;;13.60;;
44720;SDS011;30450;52.534;13.398;2023-01-19T05:17:21;21.40;;;12.98;;
44720;SDS011;30450;52.534;13.398;2023-01-19T05:19:47;20.77;;;12.32;;
44720;SDS011;30450;52.534;13.398;2023-01-19T05:22:14;20.27;;;12.52;;
44720;SDS011;30450;52.534;13.398;2023-01-19T05:24:40;27.88;;;12.32;;
44720;SDS011;30450;52.534;13.398;2023-01-19T05:27:06;27.33;;;13.88;;
44720;SDS011;30450;52.534;13.398;2023-01-19T05:29:32;23.50;;;12.60;;
44720;SDS011;30450;52.534;13.398;2023-01-19T05:31:58;26.27;;;14.05;;
44720;SDS011;30450;52.534;13.398;2023-01-19T05:34:24;19.05;;;12.35;;
44720;SDS011;30450;52.534;13.398;2023-01-19T05:36:50;22.15;;;14.07;;
44720;SDS011;30450;52.534;13.398;2023-01-19T05:39:16;21.08;;;12.85;;
44720;SDS011;30450;52.534;13.398;2023-01-19T05:41:42;22.02;;;14.20;;
44720;SDS011;30450;52.534;13.398;2023-01-19T05:44:10;17.35;;;12.80;;
44720;SDS011;30450;52.534;13.398;2023-01-19T05:46:36;20.30;;;12.02;;
44720;SDS011;30450;52.534;13.398;2023-01-19T05:49:03;21.23;;;12.35;;
44720;SDS011;30450;52.534;13.398;2023-01-19T05:51:30;20.42;;;12.70;;
44720;SDS011;30450;52.534;13.398;2023-01-19T05:54:00;22.13;;;12.27;;
44720;SDS011;30450;52.534;13.398;2023-01-19T05:56:26;24.00;;;13.60;;
44720;SDS011;30450;52.534;13.398;2023-01-19T05:58:51;24.88;;;13.43;;
44720;SDS011;30450;52.534;13.398;2023-01-19T06:01:18;24.73;;;13.18;;
44720;SDS011;30450;52.534;13.398;2023-01-19T06:03:43;21.60;;;14.00;;
44720;SDS011;30450;52.534;13.398;2023-01-19T06:06:09;22.13;;;12.90;;
44720;SDS011;30450;52.534;13.398;2023-01-19T06:08:35;19.98;;;12.48;;
44720;SDS011;30450;52.534;13.398;2023-01-19T06:11:04;18.70;;;11.65;;
44720;SDS011;30450;52.534;13.398;2023-01-19T06:13:29;21.23;;;12.27;;
44720;SDS011;30450;52.534;13.398;2023-01-19T06:15:56;18.13;;;11.98;;
44720;SDS011;30450;52.534;13.398;2023-01-19T06:18:22;22.50;;;12.95;;
44720;SDS011;30450;52.534;13.398;2023-01-19T06:20:48;21.42;;;12.95;;
44720;SDS011;30450;52.534;13.398;2023-01-19T06:23:14;21.35;;;13.05;;
44720;SDS011;30450;52.534;13.398;2023-01-19T06:25:39;19.20;;;12.95;;
44720;SDS011;30450;52.534;13.398;2023-01-19T06:28:05;23.08;;;13.10;;
44720;SDS011;30450;52.534;13.398;2023-01-19T06:30:31;20.92;;;13.13;;
44720;SDS011;30450;52.534;13.398;2023-01-19T06:32:57;20.75;;;13.85;;
44720;SDS011;30450;52.534;13.398;2023-01-19T06:35:23;19.40;;;12.20;;
44720;SDS011;30450;52.534;13.398;2023-01-19T06:37:48;22.67;;;12.27;;
44720;SDS011;30450;52.534;13.398;2023-01-19T06:40:14;22.13;;;12.55;;
44720;SDS011;30450;52.534;13.398;2023-01-19T06:42:40;19.52;;;12.13;;
44720;SDS011;30450;52.534;13.398;2023-01-19T06:45:06;15.18;;;10.73;;
44720;SDS011;30450;52.534;13.398;2023-01-19T06:47:34;18.63;;;11.70;;
44720;SDS011;30450;52.534;13.398;2023-01-19T06:50:00;19.35;;;11.73;;
44720;SDS011;30450;52.534;13.398;2023-01-19T06:52:27;18.42;;;12.00;;
44720;SDS011;30450;52.534;13.398;2023-01-19T06:54:53;19.13;;;12.25;;
44720;SDS011;30450;52.534;13.398;2023-01-19T06:57:19;15.63;;;11.45;;
44720;SDS011;30450;52.534;13.398;2023-01-19T06:59:44;17.25;;;10.95;;
44720;SDS011;30450;52.534;13.398;2023-01-19T07:02:11;15.80;;;10.75;;
44720;SDS011;30450;52.534;13.398;2023-01-19T07:04:37;18.42;;;11.63;;
44720;SDS011;30450;52.534;13.398;2023-01-19T07:07:02;19.15;;;11.45;;
44720;SDS011;30450;52.534;13.398;2023-01-19T07:09:28;19.08;;;12.20;;
44720;SDS011;30450;52.534;13.398;2023-01-19T07:11:54;20.92;;;11.90;;
44720;SDS011;30450;52.534;13.398;2023-01-19T07:14:20;21.83;;;11.93;;
44720;SDS011;30450;52.534;13.398;2023-01-19T07:16:45;18.52;;;11.68;;
44720;SDS011;30450;52.534;13.398;2023-01-19T07:19:12;29.75;;;13.70;;
44720;SDS011;30450;52.534;13.398;2023-01-19T07:21:38;21.60;;;12.82;;
44720;SDS011;30450;52.534;13.398;2023-01-19T07:24:04;19.35;;;11.10;;
44720;SDS011;30450;52.534;13.398;2023-01-19T07:26:30;22.77;;;11.38;;
44720;SDS011;30450;52.534;13.398;2023-01-19T07:28:55;24.90;;;12.07;;
44720;SDS011;30450;52.534;13.398;2023-01-19T07:31:21;16.77;;;10.90;;
44720;SDS011;30450;52.534;13.398;2023-01-19T07:33:47;21.85;;;11.48;;
44720;SDS011;30450;52.534;13.398;2023-01-19T07:36:13;21.17;;;11.68;;
44720;SDS011;30450;52.534;13.398;2023-01-19T07:38:38;18.23;;;11.25;;
44720;SDS011;30450;52.534;13.398;2023-01-19T07:41:05;26.20;;;12.65;;
44720;SDS011;30450;52.534;13.398;2023-01-19T07:43:31;21.92;;;12.20;;
44720;SDS011;30450;52.534;13.398;2023-01-19T07:45:58;29.20;;;12.18;;
44720;SDS011;30450;52.534;13.398;2023-01-19T07:48:24;23.63;;;11.55;;
44720;SDS011;30450;52.534;13.398;2023-01-19T07:50:50;19.38;;;11.90;;
44720;SDS011;30450;52.534;13.398;2023-01-19T07:53:16;23.52;;;12.07;;
44720;SDS011;30450;52.534;13.398;2023-01-19T07:55:42;18.45;;;11.07;;
44720;SDS011;30450;52.534;13.398;2023-01-19T07:58:08;20.45;;;11.15;;
44720;SDS011;30450;52.534;13.398;2023-01-19T08:00:36;18.85;;;10.95;;
44720;SDS011;30450;52.534;13.398;2023-01-19T08:05:28;21.95;;;12.30;;
44720;SDS011;30450;52.534;13.398;2023-01-19T08:07:55;20.02;;;11.52;;
44720;SDS011;30450;52.534;13.398;2023-01-19T08:10:22;19.25;;;10.00;;
44720;SDS011;30450;52.534;13.398;2023-01-19T08:15:15;20.65;;;10.75;;
44720;SDS011;30450;52.534;13.398;2023-01-19T08:17:41;18.92;;;9.98;;
44720;SDS011;30450;52.534;13.398;2023-01-19T08:20:08;22.20;;;9.00;;
44720;SDS011;30450;52.534;13.398;2023-01-19T08:22:34;18.35;;;9.70;;
44720;SDS011;30450;52.534;13.398;2023-01-19T08:25:00;14.73;;;8.90;;
44720;SDS011;30450;52.534;13.398;2023-01-19T08:27:25;18.55;;;9.43;;
44720;SDS011;30450;52.534;13.398;2023-01-19T08:29:51;13.60;;;9.07;;
44720;SDS011;30450;52.534;13.398;2023-01-19T08:32:19;19.42;;;10.23;;
44720;SDS011;30450;52.534;13.398;2023-01-19T08:34:44;22.58;;;10.60;;
44720;SDS011;30450;52.534;13.398;2023-01-19T08:37:10;17.40;;;10.70;;
44720;SDS011;30450;52.534;13.398;2023-01-19T08:39:36;12.68;;;8.65;;
44720;SDS011;30450;52.534;13.398;2023-01-19T08:42:02;13.07;;;8.93;;
44720;SDS011;30450;52.534;13.398;2023-01-19T08:44:28;17.98;;;8.95;;
44720;SDS011;30450;52.534;13.398;2023-01-19T08:46:54;16.52;;;9.52;;
44720;SDS011;30450;52.534;13.398;2023-01-19T08:49:20;16.40;;;9.02;;
44720;SDS011;30450;52.534;13.398;2023-01-19T08:51:46;16.92;;;9.18;;
44720;SDS011;30450;52.534;13.398;2023-01-19T08:54:12;15.45;;;7.82;;
44720;SDS011;30450;52.534;13.398;2023-01-19T08:56:37;16.70;;;7.70;;
44720;SDS011;30450;52.534;13.398;2023-01-19T08:59:03;17.38;;;8.50;;
44720;SDS011;30450;52.534;13.398;2023-01-19T09:01:29;23.20;;;8.18;;
44720;SDS011;30450;52.534;13.398;2023-01-19T09:03:55;17.23;;;8.93;;
44720;SDS011;30450;52.534;13.398;2023-01-19T09:06:20;24.85;;;8.63;;
44720;SDS011;30450;52.534;13.398;2023-01-19T09:08:47;11.02;;;7.18;;
44720;SDS011;30450;52.534;13.398;2023-01-19T09:11:13;14.70;;;9.07;;
44720;SDS011;30450;52.534;13.398;2023-01-19T09:13:40;11.45;;;7.43;;
44720;SDS011;30450;52.534;13.398;2023-01-19T09:16:05;15.80;;;8.70;;
44720;SDS011;30450;52.534;13.398;2023-01-19T09:18:35;16.33;;;7.03;;
44720;SDS011;30450;52.534;13.398;2023-01-19T09:21:01;9.70;;;6.82;;
44720;SDS011;30450;52.534;13.398;2023-01-19T09:23:28;11.80;;;7.30;;
44720;SDS011;30450;52.534;13.398;2023-01-19T09:25:55;23.63;;;8.25;;
44720;SDS011;30450;52.534;13.398;2023-01-19T09:28:21;13.32;;;7.03;;
44720;SDS011;30450;52.534;13.398;2023-01-19T09:30:47;15.10;;;7.97;;
44720;SDS011;30450;52.534;13.398;2023-01-19T09:33:14;12.35;;;8.13;;
44720;SDS011;30450;52.534;13.398;2023-01-19T09:35:41;15.25;;;7.05;;
44720;SDS011;30450;52.534;13.398;2023-01-19T09:38:08;10.55;;;6.72;;
44720;SDS011;30450;52.534;13.398;2023-01-19T09:40:36;12.50;;;7.03;;
44720;SDS011;30450;52.534;13.398;2023-01-19T09:43:13;19.55;;;7.78;;
44720;SDS011;30450;52.534;13.398;2023-01-19T09:50:57;15.25;;;7.00;;
44720;SDS011;30450;52.534;13.398;2023-01-19T09:53:28;11.13;;;6.40;;
44720;SDS011;30450;52.534;13.398;2023-01-19T09:55:58;10.57;;;6.78;;
44720;SDS011;30450;52.534;13.398;2023-01-19T09:58:24;12.35;;;7.28;;
44720;SDS011;30450;52.534;13.398;2023-01-19T10:00:51;14.52;;;7.68;;
44720;SDS011;30450;52.534;13.398;2023-01-19T10:03:19;14.45;;;6.82;;
44720;SDS011;30450;52.534;13.398;2023-01-19T10:10:55;11.90;;;6.82;;
44720;SDS011;30450;52.534;13.398;2023-01-19T10:20:53;15.02;;;7.00;;
44720;SDS011;30450;52.534;13.398;2023-01-19T10:25:53;8.85;;;5.60;;
44720;SDS011;30450;52.534;13.398;2023-01-19T10:28:21;11.02;;;6.25;;
44720;SDS011;30450;52.534;13.398;2023-01-19T10:30:48;9.52;;;6.28;;
44720;SDS011;30450;52.534;13.398;2023-01-19T10:33:14;8.63;;;6.18;;
44720;SDS011;30450;52.534;13.398;2023-01-19T10:35:40;9.90;;;6.05;;
44720;SDS011;30450;52.534;13.398;2023-01-19T10:38:08;9.82;;;5.70;;
44720;SDS011;30450;52.534;13.398;2023-01-19T10:40:54;10.00;;;6.93;;
44720;SDS011;30450;52.534;13.398;2023-01-19T10:43:33;10.45;;;6.80;;
44720;SDS011;30450;52.534;13.398;2023-01-19T10:46:00;10.07;;;6.30;;
44720;SDS011;30450;52.534;13.398;2023-01-19T10:48:27;9.90;;;6.72;;
44720;SDS011;30450;52.534;13.398;2023-01-19T10:51:01;13.60;;;7.15;;
44720;SDS011;30450;52.534;13.398;2023-01-19T10:53:28;12.00;;;6.57;;
44720;SDS011;30450;52.534;13.398;2023-01-19T10:56:10;9.55;;;6.05;;
44720;SDS011;30450;52.534;13.398;2023-01-19T10:58:36;10.60;;;6.68;;
44720;SDS011;30450;52.534;13.398;2023-01-19T11:01:13;10.57;;;6.07;;
44720;SDS011;30450;52.534;13.398;2023-01-19T11:03:40;9.73;;;6.28;;
44720;SDS011;30450;52.534;13.398;2023-01-19T11:08:38;8.55;;;5.85;;
44720;SDS011;30450;52.534;13.398;2023-01-19T11:11:04;12.32;;;6.57;;
44720;SDS011;30450;52.534;13.398;2023-01-19T11:13:33;9.75;;;6.88;;
44720;SDS011;30450;52.534;13.398;2023-01-19T11:16:03;9.13;;;6.72;;
44720;SDS011;30450;52.534;13.398;2023-01-19T11:18:36;11.93;;;6.05;;
44720;SDS011;30450;52.534;13.398;2023-01-19T11:21:06;11.75;;;6.95;;
44720;SDS011;30450;52.534;13.398;2023-01-19T11:23:33;14.60;;;6.28;;
44720;SDS011;30450;52.534;13.398;2023-01-19T11:26:01;10.50;;;6.20;;
44720;SDS011;30450;52.534;13.398;2023-01-19T11:28:39;12.55;;;6.88;;
44720;SDS011;30450;52.534;13.398;2023-01-19T11:33:35;9.45;;;6.20;;
44720;SDS011;30450;52.534;13.398;2023-01-19T11:36:03;11.40;;;6.75;;
44720;SDS011;30450;52.534;13.398;2023-01-19T11:38:29;8.75;;;6.70;;
44720;SDS011;30450;52.534;13.398;2023-01-19T11:40:57;10.75;;;7.10;;
44720;SDS011;30450;52.534;13.398;2023-01-19T11:43:26;15.38;;;6.75;;
44720;SDS011;30450;52.534;13.398;2023-01-19T11:45:52;15.55;;;7.10;;
44720;SDS011;30450;52.534;13.398;2023-01-19T11:50:54;13.82;;;7.57;;
44720;SDS011;30450;52.534;13.398;2023-01-19T11:53:24;11.13;;;7.22;;
44720;SDS011;30450;52.534;13.398;2023-01-19T11:56:01;15.35;;;6.95;;
44720;SDS011;30450;52.534;13.398;2023-01-19T11:58:29;8.77;;;6.60;;
44720;SDS011;30450;52.534;13.398;2023-01-19T12:01:05;12.45;;;7.20;;
44720;SDS011;30450;52.534;13.398;2023-01-19T12:03:36;10.70;;;6.97;;
44720;SDS011;30450;52.534;13.398;2023-01-19T12:06:04;12.68;;;6.72;;
44720;SDS011;30450;52.534;13.398;2023-01-19T12:08:36;16.23;;;8.25;;
44720;SDS011;30450;52.534;13.398;2023-01-19T12:11:07;10.85;;;6.85;;
44720;SDS011;30450;52.534;13.398;2023-01-19T12:13:34;12.80;;;7.55;;
44720;SDS011;30450;52.534;13.398;2023-01-19T12:18:43;11.27;;;7.57;;
44720;SDS011;30450;52.534;13.398;2023-01-19T12:21:10;13.93;;;7.55;;
44720;SDS011;30450;52.534;13.398;2023-01-19T12:26:05;11.07;;;7.10;;
44720;SDS011;30450;52.534;13.398;2023-01-19T12:28:35;14.23;;;8.43;;
44720;SDS011;30450;52.534;13.398;2023-01-19T12:31:02;13.25;;;7.38;;
44720;SDS011;30450;52.534;13.398;2023-01-19T12:33:32;15.02;;;8.05;;
44720;SDS011;30450;52.534;13.398;2023-01-19T12:36:00;11.63;;;7.00;;
44720;SDS011;30450;52.534;13.398;2023-01-19T12:43:38;13.73;;;8.15;;
44720;SDS011;30450;52.534;13.398;2023-01-19T12:46:17;12.27;;;7.95;;
44720;SDS011;30450;52.534;13.398;2023-01-19T12:48:43;15.02;;;8.60;;
44720;SDS011;30450;52.534;13.398;2023-01-19T12:51:20;14.63;;;7.75;;
44720;SDS011;30450;52.534;13.398;2023-01-19T12:53:53;13.33;;;7.90;;
44720;SDS011;30450;52.534;13.398;2023-01-19T12:56:19;12.27;;;6.93;;
44720;SDS011;30450;52.534;13.398;2023-01-19T12:58:51;14.25;;;7.93;;
44720;SDS011;30450;52.534;13.398;2023-01-19T13:01:17;10.27;;;6.88;;
44720;SDS011;30450;52.534;13.398;2023-01-19T13:04:05;11.25;;;6.80;;
44720;SDS011;30450;52.534;13.398;2023-01-19T13:09:44;10.45;;;7.75;;
44720;SDS011;30450;52.534;13.398;2023-01-19T13:14:39;14.48;;;8.95;;
44720;SDS011;30450;52.534;13.398;2023-01-19T13:17:28;12.07;;;8.18;;
44720;SDS011;30450;52.534;13.398;2023-01-19T13:23:13;15.48;;;9.35;;
44720;SDS011;30450;52.534;13.398;2023-01-19T13:25:39;11.98;;;8.15;;
44720;SDS011;30450;52.534;13.398;2023-01-19T13:28:06;9.55;;;7.65;;
44720;SDS011;30450;52.534;13.398;2023-01-19T13:30:33;11.85;;;8.00;;
44720;SDS011;30450;52.534;13.398;2023-01-19T13:33:13;14.10;;;8.85;;
44720;SDS011;30450;52.534;13.398;2023-01-19T13:35:46;15.25;;;8.75;;
44720;SDS011;30450;52.534;13.398;2023-01-19T13:38:13;13.55;;;8.98;;
44720;SDS011;30450;52.534;13.398;2023-01-19T13:40:38;18.42;;;8.45;;
44720;SDS011;30450;52.534;13.398;2023-01-19T13:43:15;11.63;;;9.02;;
44720;SDS011;30450;52.534;13.398;2023-01-19T13:45:44;14.38;;;9.68;;
44720;SDS011;30450;52.534;13.398;2023-01-19T13:48:17;15.15;;;10.02;;
44720;SDS011;30450;52.534;13.398;2023-01-19T13:50:54;13.60;;;9.38;;
44720;SDS011;30450;52.534;13.398;2023-01-19T13:53:20;12.00;;;8.60;;
44720;SDS011;30450;52.534;13.398;2023-01-19T13:58:32;16.42;;;9.90;;
44720;SDS011;30450;52.534;13.398;2023-01-19T14:00:58;15.02;;;9.77;;
44720;SDS011;30450;52.534;13.398;2023-01-19T14:03:24;12.32;;;8.85;;
44720;SDS011;30450;52.534;13.398;2023-01-19T14:05:52;18.65;;;10.30;;
44720;SDS011;30450;52.534;13.398;2023-01-19T14:08:19;17.20;;;10.75;;
44720;SDS011;30450;52.534;13.398;2023-01-19T14:13:29;14.43;;;11.18;;
44720;SDS011;30450;52.534;13.398;2023-01-19T14:16:00;15.18;;;10.75;;
44720;SDS011;30450;52.534;13.398;2023-01-19T14:18:29;15.65;;;9.73;;
44720;SDS011;30450;52.534;13.398;2023-01-19T14:21:09;19.08;;;10.65;;
44720;SDS011;30450;52.534;13.398;2023-01-19T14:28:52;16.42;;;10.95;;
44720;SDS011;30450;52.534;13.398;2023-01-19T14:33:46;14.27;;;9.80;;
44720;SDS011;30450;52.534;13.398;2023-01-19T14:38:44;14.75;;;10.60;;
44720;SDS011;30450;52.534;13.398;2023-01-19T14:41:10;17.10;;;9.88;;
44720;SDS011;30450;52.534;13.398;2023-01-19T14:43:41;16.92;;;10.63;;
44720;SDS011;30450;52.534;13.398;2023-01-19T14:46:13;19.73;;;11.10;;
44720;SDS011;30450;52.534;13.398;2023-01-19T14:48:39;17.77;;;10.95;;
44720;SDS011;30450;52.534;13.398;2023-01-19T14:51:11;16.77;;;10.43;;
44720;SDS011;30450;52.534;13.398;2023-01-19T14:53:44;15.95;;;10.63;;
44720;SDS011;30450;52.534;13.398;2023-01-19T14:56:10;15.75;;;11.05;;
44720;SDS011;30450;52.534;13.398;2023-01-19T14:58:36;17.45;;;10.48;;
44720;SDS011;30450;52.534;13.398;2023-01-19T15:01:02;16.70;;;10.23;;
44720;SDS011;30450;52.534;13.398;2023-01-19T15:03:28;15.25;;;10.35;;
44720;SDS011;30450;52.534;13.398;2023-01-19T15:05:56;16.47;;;10.60;;
44720;SDS011;30450;52.534;13.398;2023-01-19T15:08:32;19.40;;;11.68;;
44720;SDS011;30450;52.534;13.398;2023-01-19T15:11:04;15.20;;;10.55;;
44720;SDS011;30450;52.534;13.398;2023-01-19T15:13:31;19.35;;;11.05;;
44720;SDS011;30450;52.534;13.398;2023-01-19T15:15:57;16.50;;;10.18;;
44720;SDS011;30450;52.534;13.398;2023-01-19T15:18:24;20.63;;;11.40;;
44720;SDS011;30450;52.534;13.398;2023-01-19T15:20:51;19.20;;;12.80;;
44720;SDS011;30450;52.534;13.398;2023-01-19T15:23:17;20.00;;;11.68;;
44720;SDS011;30450;52.534;13.398;2023-01-19T15:25:43;19.52;;;11.40;;
44720;SDS011;30450;52.534;13.398;2023-01-19T15:28:16;17.60;;;11.13;;
44720;SDS011;30450;52.534;13.398;2023-01-19T15:30:43;16.27;;;11.30;;
44720;SDS011;30450;52.534;13.398;2023-01-19T15:33:27;17.70;;;11.52;;
44720;SDS011;30450;52.534;13.398;2023-01-19T15:35:57;16.40;;;11.30;;
44720;SDS011;30450;52.534;13.398;2023-01-19T15:38:23;16.13;;;11.30;;
44720;SDS011;30450;52.534;13.398;2023-01-19T15:40:49;19.33;;;10.65;;
44720;SDS011;30450;52.534;13.398;2023-01-19T15:43:15;17.92;;;11.80;;
44720;SDS011;30450;52.534;13.398;2023-01-19T15:45:55;14.43;;;11.18;;